sensor_id;sensor_type;location;lat;lon;timestamp;temperature;humidity
11700;DHT22;5906;51.660;6.674;2022-10-24T00:01:10;16.30;99.90
11700;DHT22;5906;51.660;6.674;2022-10-24T00:03:38;16.30;99.90
11700;DHT22;5906;51.660;6.674;2022-10-24T00:06:07;16.40;99.90
11700;DHT22;5906;51.660;6.674;2022-10-24T00:08:35;16.50;99.90
11700;DHT22;5906;51.660;6.674;2022-10-24T00:11:11;16.50;99.90
11700;DHT22;5906;51.660;6.674;2022-10-24T00:13:39;16.60;99.90
11700;DHT22;5906;51.660;6.674;2022-10-24T00:16:06;16.50;99.90
11700;DHT22;5906;51.660;6.674;2022-10-24T00:18:33;16.50;99.90
11700;DHT22;5906;51.660;6.674;2022-10-24T00:21:00;16.50;99.90
11700;DHT22;5906;51.660;6.674;2022-10-24T00:23:27;16.50;99.90
11700;DHT22;5906;51.660;6.674;2022-10-24T00:25:53;16.60;99.90
11700;DHT22;5906;51.660;6.674;2022-10-24T00:28:20;16.60;99.90
11700;DHT22;5906;51.660;6.674;2022-10-24T00:30:51;16.50;99.90
11700;DHT22;5906;51.660;6.674;2022-10-24T00:33:17;16.50;99.90
11700;DHT22;5906;51.660;6.674;2022-10-24T00:35:44;16.50;99.90
11700;DHT22;5906;51.660;6.674;2022-10-24T00:38:11;16.40;99.90
11700;DHT22;5906;51.660;6.674;2022-10-24T00:40:38;16.40;99.90
11700;DHT22;5906;51.660;6.674;2022-10-24T00:43:13;16.40;99.90
11700;DHT22;5906;51.660;6.674;2022-10-24T00:45:51;16.50;99.90
11700;DHT22;5906;51.660;6.674;2022-10-24T00:48:23;16.40;99.90
11700;DHT22;5906;51.660;6.674;2022-10-24T00:51:01;16.40;99.90
11700;DHT22;5906;51.660;6.674;2022-10-24T00:53:29;16.50;99.90
11700;DHT22;5906;51.660;6.674;2022-10-24T00:55:59;16.40;99.90
11700;DHT22;5906;51.660;6.674;2022-10-24T00:58:29;16.40;99.90
11700;DHT22;5906;51.660;6.674;2022-10-24T01:00:56;16.40;99.90
11700;DHT22;5906;51.660;6.674;2022-10-24T01:03:24;16.40;99.90
11700;DHT22;5906;51.660;6.674;2022-10-24T01:09:13;16.40;99.90
11700;DHT22;5906;51.660;6.674;2022-10-24T01:17:38;16.50;99.90
11700;DHT22;5906;51.660;6.674;2022-10-24T01:28:43;16.50;99.90
11700;DHT22;5906;51.660;6.674;2022-10-24T01:31:24;16.50;99.90
11700;DHT22;5906;51.660;6.674;2022-10-24T01:33:57;16.50;99.90
11700;DHT22;5906;51.660;6.674;2022-10-24T01:36:33;16.60;99.90
11700;DHT22;5906;51.660;6.674;2022-10-24T01:39:08;16.60;99.90
11700;DHT22;5906;51.660;6.674;2022-10-24T01:41:39;16.60;99.90
11700;DHT22;5906;51.660;6.674;2022-10-24T01:44:26;16.60;99.90
11700;DHT22;5906;51.660;6.674;2022-10-24T01:46:58;16.60;99.90
11700;DHT22;5906;51.660;6.674;2022-10-24T01:49:31;16.50;99.90
11700;DHT22;5906;51.660;6.674;2022-10-24T01:52:02;16.50;99.90
11700;DHT22;5906;51.660;6.674;2022-10-24T01:54:30;16.40;99.90
11700;DHT22;5906;51.660;6.674;2022-10-24T01:56:57;16.40;99.90
11700;DHT22;5906;51.660;6.674;2022-10-24T02:02:19;16.30;99.90
11700;DHT22;5906;51.660;6.674;2022-10-24T02:04:55;16.20;99.90
11700;DHT22;5906;51.660;6.674;2022-10-24T02:07:23;16.30;99.90
11700;DHT22;5906;51.660;6.674;2022-10-24T02:09:54;16.20;99.90
11700;DHT22;5906;51.660;6.674;2022-10-24T02:12:23;16.10;99.90
11700;DHT22;5906;51.660;6.674;2022-10-24T02:14:56;16.20;99.90
11700;DHT22;5906;51.660;6.674;2022-10-24T02:17:23;16.20;99.90
11700;DHT22;5906;51.660;6.674;2022-10-24T02:19:50;16.20;99.90
11700;DHT22;5906;51.660;6.674;2022-10-24T02:22:28;16.10;99.90
11700;DHT22;5906;51.660;6.674;2022-10-24T02:25:10;16.10;99.90
11700;DHT22;5906;51.660;6.674;2022-10-24T02:27:50;16.10;99.90
11700;DHT22;5906;51.660;6.674;2022-10-24T02:30:20;16.00;99.90
11700;DHT22;5906;51.660;6.674;2022-10-24T02:32:51;16.00;99.90
11700;DHT22;5906;51.660;6.674;2022-10-24T02:35:23;15.90;99.90
11700;DHT22;5906;51.660;6.674;2022-10-24T02:37:58;16.00;99.90
11700;DHT22;5906;51.660;6.674;2022-10-24T02:40:25;15.90;99.90
11700;DHT22;5906;51.660;6.674;2022-10-24T02:42:55;15.90;99.90
11700;DHT22;5906;51.660;6.674;2022-10-24T02:45:25;15.80;99.90
11700;DHT22;5906;51.660;6.674;2022-10-24T02:47:57;15.80;99.90
11700;DHT22;5906;51.660;6.674;2022-10-24T02:50:26;15.80;99.90
11700;DHT22;5906;51.660;6.674;2022-10-24T02:52:52;15.80;99.90
11700;DHT22;5906;51.660;6.674;2022-10-24T02:55:19;15.80;99.90
11700;DHT22;5906;51.660;6.674;2022-10-24T02:57:46;15.80;99.90
11700;DHT22;5906;51.660;6.674;2022-10-24T03:00:13;15.80;99.90
11700;DHT22;5906;51.660;6.674;2022-10-24T03:02:40;15.90;99.90
11700;DHT22;5906;51.660;6.674;2022-10-24T03:05:06;15.90;99.90
11700;DHT22;5906;51.660;6.674;2022-10-24T03:07:33;15.90;99.90
11700;DHT22;5906;51.660;6.674;2022-10-24T03:10:00;15.90;99.90
11700;DHT22;5906;51.660;6.674;2022-10-24T03:12:26;16.00;99.90
11700;DHT22;5906;51.660;6.674;2022-10-24T03:14:53;15.90;99.90
11700;DHT22;5906;51.660;6.674;2022-10-24T03:17:20;16.00;99.90
11700;DHT22;5906;51.660;6.674;2022-10-24T03:19:47;15.90;99.90
11700;DHT22;5906;51.660;6.674;2022-10-24T03:22:14;15.90;99.90
11700;DHT22;5906;51.660;6.674;2022-10-24T03:24:40;15.80;99.90
11700;DHT22;5906;51.660;6.674;2022-10-24T03:27:21;15.80;99.90
11700;DHT22;5906;51.660;6.674;2022-10-24T03:29:48;15.80;99.90
11700;DHT22;5906;51.660;6.674;2022-10-24T03:32:14;15.80;99.90
11700;DHT22;5906;51.660;6.674;2022-10-24T03:34:41;15.80;99.90
11700;DHT22;5906;51.660;6.674;2022-10-24T03:37:08;15.70;99.90
11700;DHT22;5906;51.660;6.674;2022-10-24T03:39:34;15.70;99.90
11700;DHT22;5906;51.660;6.674;2022-10-24T03:42:01;15.60;99.90
11700;DHT22;5906;51.660;6.674;2022-10-24T03:44:28;15.60;99.90
11700;DHT22;5906;51.660;6.674;2022-10-24T03:46:55;15.50;99.90
11700;DHT22;5906;51.660;6.674;2022-10-24T03:49:21;15.60;99.90
11700;DHT22;5906;51.660;6.674;2022-10-24T03:51:48;15.60;99.90
11700;DHT22;5906;51.660;6.674;2022-10-24T03:54:15;15.60;99.90
11700;DHT22;5906;51.660;6.674;2022-10-24T03:56:43;15.60;99.90
11700;DHT22;5906;51.660;6.674;2022-10-24T03:59:10;15.50;99.90
11700;DHT22;5906;51.660;6.674;2022-10-24T04:01:36;15.50;99.90
11700;DHT22;5906;51.660;6.674;2022-10-24T04:04:03;15.50;99.90
11700;DHT22;5906;51.660;6.674;2022-10-24T04:06:30;15.40;99.90
11700;DHT22;5906;51.660;6.674;2022-10-24T04:09:02;15.50;99.90
11700;DHT22;5906;51.660;6.674;2022-10-24T04:11:29;15.40;99.90
11700;DHT22;5906;51.660;6.674;2022-10-24T04:13:56;15.40;99.90
11700;DHT22;5906;51.660;6.674;2022-10-24T04:16:23;15.30;99.90
11700;DHT22;5906;51.660;6.674;2022-10-24T04:18:50;15.30;99.90
11700;DHT22;5906;51.660;6.674;2022-10-24T04:21:18;15.40;99.90
11700;DHT22;5906;51.660;6.674;2022-10-24T04:23:47;15.40;99.90
11700;DHT22;5906;51.660;6.674;2022-10-24T04:26:15;15.40;99.90
11700;DHT22;5906;51.660;6.674;2022-10-24T04:28:42;15.40;99.90
11700;DHT22;5906;51.660;6.674;2022-10-24T04:31:09;15.40;99.90
11700;DHT22;5906;51.660;6.674;2022-10-24T04:33:35;15.40;99.90
11700;DHT22;5906;51.660;6.674;2022-10-24T04:36:02;15.40;99.90
11700;DHT22;5906;51.660;6.674;2022-10-24T04:38:29;15.40;99.90
11700;DHT22;5906;51.660;6.674;2022-10-24T04:40:59;15.40;99.90
11700;DHT22;5906;51.660;6.674;2022-10-24T04:43:26;15.40;99.90
11700;DHT22;5906;51.660;6.674;2022-10-24T04:45:53;15.40;99.90
11700;DHT22;5906;51.660;6.674;2022-10-24T04:48:19;15.30;99.90
11700;DHT22;5906;51.660;6.674;2022-10-24T04:50:47;15.20;99.90
11700;DHT22;5906;51.660;6.674;2022-10-24T04:53:14;15.30;99.90
11700;DHT22;5906;51.660;6.674;2022-10-24T04:55:40;15.20;99.90
11700;DHT22;5906;51.660;6.674;2022-10-24T04:58:07;15.30;99.90
11700;DHT22;5906;51.660;6.674;2022-10-24T05:00:34;15.30;99.90
11700;DHT22;5906;51.660;6.674;2022-10-24T05:03:00;15.30;99.90
11700;DHT22;5906;51.660;6.674;2022-10-24T05:05:27;15.40;99.90
11700;DHT22;5906;51.660;6.674;2022-10-24T05:07:54;15.40;99.90
11700;DHT22;5906;51.660;6.674;2022-10-24T05:10:21;15.40;99.90
11700;DHT22;5906;51.660;6.674;2022-10-24T05:12:48;15.40;99.90
11700;DHT22;5906;51.660;6.674;2022-10-24T05:15:14;15.40;99.90
11700;DHT22;5906;51.660;6.674;2022-10-24T05:17:41;15.40;99.90
11700;DHT22;5906;51.660;6.674;2022-10-24T05:20:08;15.30;99.90
11700;DHT22;5906;51.660;6.674;2022-10-24T05:22:35;15.30;99.90
11700;DHT22;5906;51.660;6.674;2022-10-24T05:25:02;15.30;99.90
11700;DHT22;5906;51.660;6.674;2022-10-24T05:27:29;15.30;99.90
11700;DHT22;5906;51.660;6.674;2022-10-24T05:29:56;15.40;99.90
11700;DHT22;5906;51.660;6.674;2022-10-24T05:32:23;15.30;99.90
11700;DHT22;5906;51.660;6.674;2022-10-24T05:34:50;15.40;99.90
11700;DHT22;5906;51.660;6.674;2022-10-24T05:37:17;15.40;99.90
11700;DHT22;5906;51.660;6.674;2022-10-24T05:39:44;15.30;99.90
11700;DHT22;5906;51.660;6.674;2022-10-24T05:42:10;15.30;99.90
11700;DHT22;5906;51.660;6.674;2022-10-24T05:44:37;15.20;99.90
11700;DHT22;5906;51.660;6.674;2022-10-24T05:47:04;15.20;99.90
11700;DHT22;5906;51.660;6.674;2022-10-24T05:49:31;15.10;99.90
11700;DHT22;5906;51.660;6.674;2022-10-24T05:51:58;15.20;99.90
11700;DHT22;5906;51.660;6.674;2022-10-24T05:54:25;15.10;99.90
11700;DHT22;5906;51.660;6.674;2022-10-24T05:57:08;15.20;99.90
11700;DHT22;5906;51.660;6.674;2022-10-24T05:59:34;15.20;99.90
11700;DHT22;5906;51.660;6.674;2022-10-24T06:02:01;15.10;99.90
11700;DHT22;5906;51.660;6.674;2022-10-24T06:04:28;15.20;99.90
11700;DHT22;5906;51.660;6.674;2022-10-24T06:06:55;15.20;99.90
11700;DHT22;5906;51.660;6.674;2022-10-24T06:09:22;15.30;99.90
11700;DHT22;5906;51.660;6.674;2022-10-24T06:11:48;15.30;99.90
11700;DHT22;5906;51.660;6.674;2022-10-24T06:14:15;15.30;99.90
11700;DHT22;5906;51.660;6.674;2022-10-24T06:16:42;15.40;99.90
11700;DHT22;5906;51.660;6.674;2022-10-24T06:19:09;15.40;99.90
11700;DHT22;5906;51.660;6.674;2022-10-24T06:21:35;15.30;99.90
11700;DHT22;5906;51.660;6.674;2022-10-24T06:24:02;15.40;99.90
11700;DHT22;5906;51.660;6.674;2022-10-24T06:26:29;15.40;99.90
11700;DHT22;5906;51.660;6.674;2022-10-24T06:28:56;15.40;99.90
11700;DHT22;5906;51.660;6.674;2022-10-24T06:31:22;15.40;99.90
11700;DHT22;5906;51.660;6.674;2022-10-24T06:33:51;15.50;99.90
11700;DHT22;5906;51.660;6.674;2022-10-24T06:36:19;15.50;99.90
11700;DHT22;5906;51.660;6.674;2022-10-24T06:38:46;15.50;99.90
11700;DHT22;5906;51.660;6.674;2022-10-24T06:41:13;15.50;99.90
11700;DHT22;5906;51.660;6.674;2022-10-24T06:43:42;15.50;99.90
11700;DHT22;5906;51.660;6.674;2022-10-24T06:46:13;15.50;99.90
11700;DHT22;5906;51.660;6.674;2022-10-24T06:48:40;15.50;99.90
11700;DHT22;5906;51.660;6.674;2022-10-24T06:51:07;15.50;99.90
11700;DHT22;5906;51.660;6.674;2022-10-24T06:53:35;15.50;99.90
11700;DHT22;5906;51.660;6.674;2022-10-24T06:56:02;15.50;99.90
11700;DHT22;5906;51.660;6.674;2022-10-24T06:58:31;15.50;99.90
11700;DHT22;5906;51.660;6.674;2022-10-24T07:00:58;15.50;99.90
11700;DHT22;5906;51.660;6.674;2022-10-24T07:03:25;15.50;99.90
11700;DHT22;5906;51.660;6.674;2022-10-24T07:05:52;15.50;99.90
11700;DHT22;5906;51.660;6.674;2022-10-24T07:08:19;15.50;99.90
11700;DHT22;5906;51.660;6.674;2022-10-24T07:10:45;15.50;99.90
11700;DHT22;5906;51.660;6.674;2022-10-24T07:13:12;15.60;99.90
11700;DHT22;5906;51.660;6.674;2022-10-24T07:15:38;15.50;99.90
11700;DHT22;5906;51.660;6.674;2022-10-24T07:18:05;15.60;99.90
11700;DHT22;5906;51.660;6.674;2022-10-24T07:20:32;15.60;99.90
11700;DHT22;5906;51.660;6.674;2022-10-24T07:22:59;15.60;99.90
11700;DHT22;5906;51.660;6.674;2022-10-24T07:25:25;15.60;99.90
11700;DHT22;5906;51.660;6.674;2022-10-24T07:27:52;15.60;99.90
11700;DHT22;5906;51.660;6.674;2022-10-24T07:30:21;15.70;99.90
11700;DHT22;5906;51.660;6.674;2022-10-24T07:32:47;15.80;99.90
11700;DHT22;5906;51.660;6.674;2022-10-24T07:35:14;15.80;99.90
11700;DHT22;5906;51.660;6.674;2022-10-24T07:37:41;15.80;99.90
11700;DHT22;5906;51.660;6.674;2022-10-24T07:40:08;15.80;99.90
11700;DHT22;5906;51.660;6.674;2022-10-24T07:42:35;15.80;99.90
11700;DHT22;5906;51.660;6.674;2022-10-24T07:45:02;15.80;99.90
11700;DHT22;5906;51.660;6.674;2022-10-24T07:47:29;15.90;99.90
11700;DHT22;5906;51.660;6.674;2022-10-24T07:49:56;16.00;99.90
11700;DHT22;5906;51.660;6.674;2022-10-24T07:52:23;16.00;99.90
11700;DHT22;5906;51.660;6.674;2022-10-24T07:54:52;16.20;99.90
11700;DHT22;5906;51.660;6.674;2022-10-24T07:57:20;16.20;99.90
11700;DHT22;5906;51.660;6.674;2022-10-24T07:59:46;16.30;99.90
11700;DHT22;5906;51.660;6.674;2022-10-24T08:02:14;16.30;99.90
11700;DHT22;5906;51.660;6.674;2022-10-24T08:04:41;16.40;99.90
11700;DHT22;5906;51.660;6.674;2022-10-24T08:07:09;16.50;99.90
11700;DHT22;5906;51.660;6.674;2022-10-24T08:09:41;16.50;99.90
11700;DHT22;5906;51.660;6.674;2022-10-24T08:12:08;16.60;99.90
11700;DHT22;5906;51.660;6.674;2022-10-24T08:14:36;16.70;99.90
11700;DHT22;5906;51.660;6.674;2022-10-24T08:17:04;16.70;99.90
11700;DHT22;5906;51.660;6.674;2022-10-24T08:19:31;16.70;99.90
11700;DHT22;5906;51.660;6.674;2022-10-24T08:21:59;16.70;99.90
11700;DHT22;5906;51.660;6.674;2022-10-24T08:24:26;16.70;99.90
11700;DHT22;5906;51.660;6.674;2022-10-24T08:26:53;16.70;99.90
11700;DHT22;5906;51.660;6.674;2022-10-24T08:29:22;16.80;99.90
11700;DHT22;5906;51.660;6.674;2022-10-24T08:31:50;16.80;99.90
11700;DHT22;5906;51.660;6.674;2022-10-24T08:34:18;16.90;99.90
11700;DHT22;5906;51.660;6.674;2022-10-24T08:36:49;16.90;99.90
11700;DHT22;5906;51.660;6.674;2022-10-24T08:39:16;17.00;99.90
11700;DHT22;5906;51.660;6.674;2022-10-24T08:41:59;17.10;99.90
11700;DHT22;5906;51.660;6.674;2022-10-24T08:49:42;17.20;99.90
11700;DHT22;5906;51.660;6.674;2022-10-24T08:54:46;17.50;99.90
11700;DHT22;5906;51.660;6.674;2022-10-24T08:57:24;17.60;99.90
11700;DHT22;5906;51.660;6.674;2022-10-24T08:59:55;17.70;99.90
11700;DHT22;5906;51.660;6.674;2022-10-24T09:02:25;17.60;99.90
11700;DHT22;5906;51.660;6.674;2022-10-24T09:05:02;17.70;99.90
11700;DHT22;5906;51.660;6.674;2022-10-24T09:07:30;17.70;99.90
11700;DHT22;5906;51.660;6.674;2022-10-24T09:10:09;17.90;99.90
11700;DHT22;5906;51.660;6.674;2022-10-24T09:12:38;18.00;99.90
11700;DHT22;5906;51.660;6.674;2022-10-24T09:15:22;18.10;99.90
11700;DHT22;5906;51.660;6.674;2022-10-24T09:17:49;18.10;99.90
11700;DHT22;5906;51.660;6.674;2022-10-24T09:20:30;18.00;99.90
11700;DHT22;5906;51.660;6.674;2022-10-24T09:23:01;18.00;99.90
11700;DHT22;5906;51.660;6.674;2022-10-24T09:25:36;17.90;99.90
11700;DHT22;5906;51.660;6.674;2022-10-24T09:28:05;17.90;99.90
11700;DHT22;5906;51.660;6.674;2022-10-24T09:30:33;17.90;99.90
11700;DHT22;5906;51.660;6.674;2022-10-24T09:33:19;18.00;99.90
11700;DHT22;5906;51.660;6.674;2022-10-24T09:35:48;17.90;99.90
11700;DHT22;5906;51.660;6.674;2022-10-24T09:40:53;18.00;99.90
11700;DHT22;5906;51.660;6.674;2022-10-24T09:43:55;18.00;99.90
11700;DHT22;5906;51.660;6.674;2022-10-24T09:46:27;18.00;99.90
11700;DHT22;5906;51.660;6.674;2022-10-24T09:49:15;18.00;99.90
11700;DHT22;5906;51.660;6.674;2022-10-24T09:51:58;18.00;99.90
11700;DHT22;5906;51.660;6.674;2022-10-24T09:54:28;18.20;99.90
11700;DHT22;5906;51.660;6.674;2022-10-24T09:59:57;18.40;99.90
11700;DHT22;5906;51.660;6.674;2022-10-24T10:02:28;18.40;99.90
11700;DHT22;5906;51.660;6.674;2022-10-24T10:07:32;18.70;99.90
11700;DHT22;5906;51.660;6.674;2022-10-24T10:12:46;19.00;99.90
11700;DHT22;5906;51.660;6.674;2022-10-24T10:15:36;19.20;99.90
11700;DHT22;5906;51.660;6.674;2022-10-24T10:23:26;19.50;99.90
11700;DHT22;5906;51.660;6.674;2022-10-24T10:28:59;19.80;99.90
11700;DHT22;5906;51.660;6.674;2022-10-24T10:31:47;19.90;99.90
11700;DHT22;5906;51.660;6.674;2022-10-24T10:34:39;19.90;99.90
11700;DHT22;5906;51.660;6.674;2022-10-24T10:40:10;19.70;99.90
11700;DHT22;5906;51.660;6.674;2022-10-24T10:46:09;19.70;99.90
11700;DHT22;5906;51.660;6.674;2022-10-24T10:54:20;19.40;99.90
11700;DHT22;5906;51.660;6.674;2022-10-24T10:57:02;19.30;99.90
11700;DHT22;5906;51.660;6.674;2022-10-24T11:02:24;19.70;99.90
11700;DHT22;5906;51.660;6.674;2022-10-24T11:10:18;20.00;99.90
11700;DHT22;5906;51.660;6.674;2022-10-24T11:12:46;20.10;99.90
11700;DHT22;5906;51.660;6.674;2022-10-24T11:15:26;20.20;99.90
11700;DHT22;5906;51.660;6.674;2022-10-24T11:18:17;20.40;99.90
11700;DHT22;5906;51.660;6.674;2022-10-24T11:20:52;20.40;99.90
11700;DHT22;5906;51.660;6.674;2022-10-24T11:23:38;20.30;99.90
11700;DHT22;5906;51.660;6.674;2022-10-24T11:26:11;20.10;99.90
11700;DHT22;5906;51.660;6.674;2022-10-24T11:31:33;19.80;99.90
11700;DHT22;5906;51.660;6.674;2022-10-24T11:37:08;19.40;99.90
11700;DHT22;5906;51.660;6.674;2022-10-24T11:39:50;19.30;99.90
11700;DHT22;5906;51.660;6.674;2022-10-24T11:42:26;19.30;99.90
11700;DHT22;5906;51.660;6.674;2022-10-24T11:45:14;19.20;99.90
11700;DHT22;5906;51.660;6.674;2022-10-24T11:47:58;19.20;99.90
11700;DHT22;5906;51.660;6.674;2022-10-24T11:51:03;19.10;99.90
11700;DHT22;5906;51.660;6.674;2022-10-24T11:56:26;18.90;99.90
11700;DHT22;5906;51.660;6.674;2022-10-24T11:58:59;19.00;99.90
11700;DHT22;5906;51.660;6.674;2022-10-24T12:01:59;19.10;99.90
11700;DHT22;5906;51.660;6.674;2022-10-24T12:07:44;19.30;99.90
11700;DHT22;5906;51.660;6.674;2022-10-24T12:15:24;20.00;99.90
11700;DHT22;5906;51.660;6.674;2022-10-24T12:18:12;20.20;99.90
11700;DHT22;5906;51.660;6.674;2022-10-24T12:20:53;20.30;99.90
11700;DHT22;5906;51.660;6.674;2022-10-24T12:23:25;20.20;99.90
11700;DHT22;5906;51.660;6.674;2022-10-24T12:28:40;19.90;99.90
11700;DHT22;5906;51.660;6.674;2022-10-24T12:31:10;19.70;99.90
11700;DHT22;5906;51.660;6.674;2022-10-24T12:33:38;19.70;99.90
11700;DHT22;5906;51.660;6.674;2022-10-24T12:36:05;19.60;99.90
11700;DHT22;5906;51.660;6.674;2022-10-24T12:41:02;19.80;99.90
11700;DHT22;5906;51.660;6.674;2022-10-24T12:43:40;19.70;99.90
11700;DHT22;5906;51.660;6.674;2022-10-24T12:51:57;19.10;99.90
11700;DHT22;5906;51.660;6.674;2022-10-24T12:54:42;19.20;99.90
11700;DHT22;5906;51.660;6.674;2022-10-24T12:59:49;19.40;99.90
11700;DHT22;5906;51.660;6.674;2022-10-24T13:05:04;19.50;99.90
11700;DHT22;5906;51.660;6.674;2022-10-24T13:10:52;19.60;99.90
11700;DHT22;5906;51.660;6.674;2022-10-24T13:16:19;19.40;99.90
11700;DHT22;5906;51.660;6.674;2022-10-24T13:19:31;19.30;99.90
11700;DHT22;5906;51.660;6.674;2022-10-24T13:21:53;19.30;99.90
11700;DHT22;5906;51.660;6.674;2022-10-24T13:24:30;19.30;99.90
11700;DHT22;5906;51.660;6.674;2022-10-24T13:40:14;18.60;99.90
11700;DHT22;5906;51.660;6.674;2022-10-24T13:42:50;18.50;99.90
11700;DHT22;5906;51.660;6.674;2022-10-24T13:48:14;18.20;99.90
11700;DHT22;5906;51.660;6.674;2022-10-24T13:53:23;17.90;99.90
11700;DHT22;5906;51.660;6.674;2022-10-24T13:56:01;17.90;99.90
11700;DHT22;5906;51.660;6.674;2022-10-24T13:58:37;17.80;99.90
11700;DHT22;5906;51.660;6.674;2022-10-24T14:01:24;17.90;99.90
11700;DHT22;5906;51.660;6.674;2022-10-24T14:03:53;17.90;99.90
11700;DHT22;5906;51.660;6.674;2022-10-24T14:06:28;17.80;99.90
11700;DHT22;5906;51.660;6.674;2022-10-24T14:09:15;17.60;99.90
11700;DHT22;5906;51.660;6.674;2022-10-24T14:11:44;17.50;99.90
11700;DHT22;5906;51.660;6.674;2022-10-24T14:14:31;17.50;99.90
11700;DHT22;5906;51.660;6.674;2022-10-24T14:17:15;17.50;99.90
11700;DHT22;5906;51.660;6.674;2022-10-24T14:20:19;17.50;99.90
11700;DHT22;5906;51.660;6.674;2022-10-24T14:22:47;17.50;99.90
11700;DHT22;5906;51.660;6.674;2022-10-24T14:27:51;17.50;99.90
11700;DHT22;5906;51.660;6.674;2022-10-24T14:30:21;17.50;99.90
11700;DHT22;5906;51.660;6.674;2022-10-24T14:32:48;17.50;99.90
11700;DHT22;5906;51.660;6.674;2022-10-24T14:35:28;17.40;99.90
11700;DHT22;5906;51.660;6.674;2022-10-24T14:37:55;17.50;99.90
11700;DHT22;5906;51.660;6.674;2022-10-24T14:40:23;17.40;99.90
11700;DHT22;5906;51.660;6.674;2022-10-24T14:42:50;17.40;99.90
11700;DHT22;5906;51.660;6.674;2022-10-24T14:45:29;17.40;99.90
11700;DHT22;5906;51.660;6.674;2022-10-24T14:47:58;17.40;99.90
11700;DHT22;5906;51.660;6.674;2022-10-24T14:50:38;17.20;99.90
11700;DHT22;5906;51.660;6.674;2022-10-24T14:53:20;17.20;99.90
11700;DHT22;5906;51.660;6.674;2022-10-24T14:55:50;17.10;99.90
11700;DHT22;5906;51.660;6.674;2022-10-24T14:58:25;17.10;99.90
11700;DHT22;5906;51.660;6.674;2022-10-24T15:00:53;17.10;99.90
11700;DHT22;5906;51.660;6.674;2022-10-24T15:03:26;16.90;99.90
11700;DHT22;5906;51.660;6.674;2022-10-24T15:06:24;16.80;99.90
11700;DHT22;5906;51.660;6.674;2022-10-24T15:09:13;16.80;99.90
11700;DHT22;5906;51.660;6.674;2022-10-24T15:11:43;16.70;99.90
11700;DHT22;5906;51.660;6.674;2022-10-24T15:14:38;16.80;99.90
11700;DHT22;5906;51.660;6.674;2022-10-24T15:19:45;16.80;99.90
11700;DHT22;5906;51.660;6.674;2022-10-24T15:22:29;16.70;99.90
11700;DHT22;5906;51.660;6.674;2022-10-24T15:24:59;16.70;99.90
11700;DHT22;5906;51.660;6.674;2022-10-24T15:27:41;16.70;99.90
11700;DHT22;5906;51.660;6.674;2022-10-24T15:30:20;16.70;99.90
11700;DHT22;5906;51.660;6.674;2022-10-24T15:32:48;16.60;99.90
11700;DHT22;5906;51.660;6.674;2022-10-24T15:35:16;16.50;99.90
11700;DHT22;5906;51.660;6.674;2022-10-24T15:37:57;16.50;99.90
11700;DHT22;5906;51.660;6.674;2022-10-24T15:40:30;16.50;99.90
11700;DHT22;5906;51.660;6.674;2022-10-24T15:42:58;16.50;99.90
11700;DHT22;5906;51.660;6.674;2022-10-24T15:45:26;16.50;99.90
11700;DHT22;5906;51.660;6.674;2022-10-24T15:47:52;16.50;99.90
11700;DHT22;5906;51.660;6.674;2022-10-24T15:50:22;16.40;99.90
11700;DHT22;5906;51.660;6.674;2022-10-24T15:52:52;16.40;99.90
11700;DHT22;5906;51.660;6.674;2022-10-24T15:55:22;16.30;99.90
11700;DHT22;5906;51.660;6.674;2022-10-24T15:57:50;16.20;99.90
11700;DHT22;5906;51.660;6.674;2022-10-24T16:00:19;16.10;99.90
11700;DHT22;5906;51.660;6.674;2022-10-24T16:02:48;16.00;99.90
11700;DHT22;5906;51.660;6.674;2022-10-24T16:05:18;16.10;99.90
11700;DHT22;5906;51.660;6.674;2022-10-24T16:07:45;16.00;99.90
11700;DHT22;5906;51.660;6.674;2022-10-24T16:10:14;16.00;99.90
11700;DHT22;5906;51.660;6.674;2022-10-24T16:12:42;16.00;99.90
11700;DHT22;5906;51.660;6.674;2022-10-24T16:15:22;15.90;99.90
11700;DHT22;5906;51.660;6.674;2022-10-24T16:17:49;15.80;99.90
11700;DHT22;5906;51.660;6.674;2022-10-24T16:20:17;15.70;99.90
11700;DHT22;5906;51.660;6.674;2022-10-24T16:22:44;15.70;99.90
11700;DHT22;5906;51.660;6.674;2022-10-24T16:25:22;15.70;99.90
11700;DHT22;5906;51.660;6.674;2022-10-24T16:27:50;15.70;99.90
11700;DHT22;5906;51.660;6.674;2022-10-24T16:30:19;15.70;99.90
11700;DHT22;5906;51.660;6.674;2022-10-24T16:32:46;15.60;99.90
11700;DHT22;5906;51.660;6.674;2022-10-24T16:35:26;15.50;99.90
11700;DHT22;5906;51.660;6.674;2022-10-24T16:37:55;15.50;99.90
11700;DHT22;5906;51.660;6.674;2022-10-24T16:40:23;15.40;99.90
11700;DHT22;5906;51.660;6.674;2022-10-24T16:42:51;15.50;99.90
11700;DHT22;5906;51.660;6.674;2022-10-24T16:45:19;15.40;99.90
11700;DHT22;5906;51.660;6.674;2022-10-24T16:47:47;15.40;99.90
11700;DHT22;5906;51.660;6.674;2022-10-24T16:50:17;15.30;99.90
11700;DHT22;5906;51.660;6.674;2022-10-24T16:52:46;15.30;99.90
11700;DHT22;5906;51.660;6.674;2022-10-24T16:55:14;15.30;99.90
11700;DHT22;5906;51.660;6.674;2022-10-24T16:57:41;15.10;99.90
11700;DHT22;5906;51.660;6.674;2022-10-24T17:00:08;15.10;99.90
11700;DHT22;5906;51.660;6.674;2022-10-24T17:02:40;15.10;99.90
11700;DHT22;5906;51.660;6.674;2022-10-24T17:05:08;15.00;99.90
11700;DHT22;5906;51.660;6.674;2022-10-24T17:07:35;15.10;99.90
11700;DHT22;5906;51.660;6.674;2022-10-24T17:10:03;15.10;99.90
11700;DHT22;5906;51.660;6.674;2022-10-24T17:12:30;15.00;99.90
11700;DHT22;5906;51.660;6.674;2022-10-24T17:14:57;15.10;99.90
11700;DHT22;5906;51.660;6.674;2022-10-24T17:17:24;15.10;99.90
11700;DHT22;5906;51.660;6.674;2022-10-24T17:19:53;15.10;99.90
11700;DHT22;5906;51.660;6.674;2022-10-24T17:22:20;15.10;99.90
11700;DHT22;5906;51.660;6.674;2022-10-24T17:24:48;15.10;99.90
11700;DHT22;5906;51.660;6.674;2022-10-24T17:27:15;15.10;99.90
11700;DHT22;5906;51.660;6.674;2022-10-24T17:29:42;15.20;99.90
11700;DHT22;5906;51.660;6.674;2022-10-24T17:32:13;15.20;99.90
11700;DHT22;5906;51.660;6.674;2022-10-24T17:34:41;15.30;99.90
11700;DHT22;5906;51.660;6.674;2022-10-24T17:37:47;15.30;99.90
11700;DHT22;5906;51.660;6.674;2022-10-24T17:40:18;15.20;99.90
11700;DHT22;5906;51.660;6.674;2022-10-24T17:42:46;15.30;99.90
11700;DHT22;5906;51.660;6.674;2022-10-24T17:45:21;15.30;99.90
11700;DHT22;5906;51.660;6.674;2022-10-24T17:47:48;15.20;99.90
11700;DHT22;5906;51.660;6.674;2022-10-24T17:50:15;15.20;99.90
11700;DHT22;5906;51.660;6.674;2022-10-24T17:52:43;15.20;99.90
11700;DHT22;5906;51.660;6.674;2022-10-24T17:55:22;15.20;99.90
11700;DHT22;5906;51.660;6.674;2022-10-24T17:58:09;15.10;99.90
11700;DHT22;5906;51.660;6.674;2022-10-24T18:00:37;15.00;99.90
11700;DHT22;5906;51.660;6.674;2022-10-24T18:03:04;15.00;99.90
11700;DHT22;5906;51.660;6.674;2022-10-24T18:05:31;14.90;99.90
11700;DHT22;5906;51.660;6.674;2022-10-24T18:08:04;14.90;99.90
11700;DHT22;5906;51.660;6.674;2022-10-24T18:10:31;14.80;99.90
11700;DHT22;5906;51.660;6.674;2022-10-24T18:12:58;14.80;99.90
11700;DHT22;5906;51.660;6.674;2022-10-24T18:15:30;14.80;99.90
11700;DHT22;5906;51.660;6.674;2022-10-24T18:17:57;14.90;99.90
11700;DHT22;5906;51.660;6.674;2022-10-24T18:20:23;15.00;99.90